Pagrindinis puslapis
METAR-TAF:

METAR-TAF

Oro uostai :

Kapris, Italija

platuma: 40-33N, ilguma: 014-12E, Aukštis: 160 m

Dabartinis oras

Ataskaita buvo paskelbta 6 valandos ir 8 minutes, ne 17:55 UTC
Vėjas 1 kt iš Šiaurės
Temperatūra 14°C
Drėgmė 72%
Slėgis 1025 hPa
Matomumas 10 km arba daugiau
nėra debesų žemiau 1500 m ir nėra kamuolinių lietaus debesų

METAR: LIQC 071755Z 01001KT CAVOK 14/09 Q1025 RMK SKC QUK 1 QUL 1 W VIS MAR 35 KM VIS MIN 9999

Laikas: 02:03 (00:03 UTC)


TAF: trūkstamas

Orai ataskaitas ir orų prognozės (METAR, TAF).

turimą stotys yra geltonos ir raudonos taškus žemėlapyje.

Perkelti pele per norėdami pamatyti stoties vardą.

Tada spustelėkite, norėdami matyti oro stebėjimo ir prognozės.

Norėdami pakeisti žemėlapį: spustelėkite ant žalios mygtukų su juodo kryžiaus žemyn,; žalią mygtuką su brūkšneliu, jei norite nutolinti; arba žalių rodyklių gretimoms žemėlapius.


METAR-TAF: